createdAt,value
2023-07-20T00:03:18.354Z,9.65
2023-07-20T00:05:26.314Z,8.68
2023-07-20T00:07:33.935Z,9.07
2023-07-20T00:09:39.248Z,9.20
2023-07-20T00:11:44.563Z,7.20
2023-07-20T00:13:49.491Z,11.05
2023-07-20T00:15:55.205Z,8.27
2023-07-20T00:18:00.073Z,8.32
2023-07-20T00:20:06.553Z,8.80
2023-07-20T00:22:12.627Z,8.27
2023-07-20T00:24:20.369Z,7.95
2023-07-20T00:26:25.879Z,7.72
2023-07-20T00:28:28.625Z,7.78
2023-07-20T00:30:33.884Z,8.40
2023-07-20T00:32:39.087Z,8.93
2023-07-20T00:34:42.300Z,7.35
2023-07-20T00:36:47.579Z,8.00
2023-07-20T00:38:52.464Z,10.25
2023-07-20T00:41:00.129Z,8.88
2023-07-20T00:43:05.103Z,7.68
2023-07-20T00:45:11.649Z,7.82
2023-07-20T00:47:17.085Z,8.35
2023-07-20T00:49:23.165Z,11.50
2023-07-20T00:51:29.519Z,6.60
2023-07-20T00:53:34.878Z,8.50
2023-07-20T00:55:44.587Z,7.50
2023-07-20T00:57:52.285Z,8.05
2023-07-20T01:00:00.143Z,7.47
2023-07-20T01:02:05.300Z,6.72
2023-07-20T01:04:10.765Z,7.30
2023-07-20T01:06:31.935Z,6.63
2023-07-20T01:08:43.255Z,6.30
2023-07-20T01:10:55.072Z,5.45
2023-07-20T01:13:06.412Z,7.30
2023-07-20T01:15:13.338Z,4.57
2023-07-20T01:17:18.257Z,4.63
2023-07-20T01:19:23.395Z,4.65
2023-07-20T01:21:34.824Z,4.35
2023-07-20T01:24:09.096Z,7.03
2023-07-20T01:26:40.999Z,3.58
2023-07-20T01:29:18.824Z,4.32
2023-07-20T01:31:30.150Z,3.28
2023-07-20T01:33:34.803Z,3.50
2023-07-20T01:35:42.541Z,4.55
2023-07-20T01:37:50.875Z,3.33
2023-07-20T01:40:01.426Z,4.00
2023-07-20T01:42:07.391Z,4.43
2023-07-20T01:44:13.672Z,3.30
2023-07-20T01:46:19.037Z,4.80
2023-07-20T01:48:26.728Z,3.72
2023-07-20T01:50:35.317Z,3.88
2023-07-20T01:52:44.388Z,5.57
2023-07-20T01:54:49.541Z,4.38
2023-07-20T01:56:54.515Z,4.10
2023-07-20T01:58:56.960Z,3.95
2023-07-20T02:01:05.362Z,2.83
2023-07-20T02:03:13.668Z,4.35
2023-07-20T02:05:21.443Z,3.05
2023-07-20T02:07:26.610Z,5.13
2023-07-20T02:09:34.989Z,4.07
2023-07-20T02:11:42.070Z,3.83
2023-07-20T02:13:47.399Z,5.40
2023-07-20T02:15:52.977Z,5.28
2023-07-20T02:17:58.249Z,5.05
2023-07-20T02:20:03.419Z,4.85
2023-07-20T02:22:12.039Z,6.07
2023-07-20T02:24:17.577Z,4.97
2023-07-20T02:26:22.855Z,5.30
2023-07-20T02:28:28.076Z,6.15
2023-07-20T02:30:33.124Z,2.53
2023-07-20T02:32:39.869Z,4.15
2023-07-20T02:34:45.125Z,4.90
2023-07-20T02:36:50.389Z,4.40
2023-07-20T02:38:58.205Z,6.28
2023-07-20T02:41:04.096Z,3.85
2023-07-20T02:43:09.188Z,4.57
2023-07-20T02:45:13.624Z,7.28
2023-07-20T02:47:18.575Z,4.47
2023-07-20T02:49:23.446Z,4.30
2023-07-20T02:51:28.949Z,5.05
2023-07-20T02:53:33.866Z,4.63
2023-07-20T02:55:42.552Z,5.85
2023-07-20T02:57:47.673Z,3.53
2023-07-20T02:59:52.586Z,4.35
2023-07-20T03:02:01.676Z,5.53
2023-07-20T03:04:11.799Z,5.80
2023-07-20T03:06:17.251Z,5.60
2023-07-20T03:08:22.385Z,5.00
2023-07-20T03:10:28.380Z,5.53
2023-07-20T03:12:36.022Z,3.05
2023-07-20T03:14:41.838Z,6.40
2023-07-20T03:16:47.829Z,5.43
2023-07-20T03:18:53.013Z,4.00
2023-07-20T03:20:55.377Z,6.47
2023-07-20T03:23:00.573Z,4.00
2023-07-20T03:25:05.860Z,5.15
2023-07-20T03:27:12.080Z,5.72
2023-07-20T03:29:20.031Z,4.15
2023-07-20T03:31:25.173Z,4.45
2023-07-20T03:33:32.744Z,4.63
2023-07-20T03:35:37.710Z,4.57
2023-07-20T03:37:43.869Z,6.75
2023-07-20T03:39:48.909Z,6.70
2023-07-20T03:41:53.847Z,3.10
2023-07-20T03:43:59.433Z,5.35
2023-07-20T03:46:08.457Z,11.73
2023-07-20T03:48:13.588Z,5.28
2023-07-20T03:50:19.139Z,4.70
2023-07-20T03:52:24.679Z,5.63
2023-07-20T03:54:29.519Z,5.28
2023-07-20T03:56:37.215Z,6.13
2023-07-20T03:58:42.490Z,4.05
2023-07-20T04:00:51.634Z,5.80
2023-07-20T04:03:01.627Z,4.22
2023-07-20T04:05:10.054Z,5.15
2023-07-20T04:07:16.462Z,5.30
2023-07-20T04:09:21.578Z,6.00
2023-07-20T04:11:26.506Z,6.15
2023-07-20T04:13:34.766Z,3.88
2023-07-20T04:15:40.113Z,5.82
2023-07-20T04:17:46.148Z,7.70
2023-07-20T04:19:54.182Z,6.43
2023-07-20T04:21:59.910Z,5.18
2023-07-20T04:24:06.380Z,8.40
2023-07-20T04:26:13.910Z,9.00
2023-07-20T04:28:18.866Z,4.55
2023-07-20T04:30:24.671Z,7.60
2023-07-20T04:32:27.149Z,7.78
2023-07-20T04:34:33.087Z,7.45
2023-07-20T04:36:40.780Z,5.95
2023-07-20T04:38:46.959Z,6.15
2023-07-20T04:40:53.305Z,8.98
2023-07-20T04:42:58.202Z,7.40
2023-07-20T04:45:03.153Z,5.97
2023-07-20T04:47:09.925Z,6.80
2023-07-20T04:49:16.527Z,8.15
2023-07-20T04:51:22.287Z,8.07
2023-07-20T04:53:29.987Z,8.63
2023-07-20T04:55:35.121Z,7.95
2023-07-20T04:57:40.453Z,9.90
2023-07-20T04:59:49.163Z,7.22
2023-07-20T05:01:54.214Z,7.20
2023-07-20T05:03:59.592Z,8.80
2023-07-20T05:06:04.808Z,8.15
2023-07-20T05:08:10.528Z,7.07
2023-07-20T05:10:18.198Z,8.80
2023-07-20T05:12:23.133Z,7.32
2023-07-20T05:14:27.963Z,8.23
2023-07-20T05:16:32.986Z,7.05
2023-07-20T05:18:35.999Z,6.95
2023-07-20T05:20:41.538Z,8.20
2023-07-20T05:22:46.204Z,7.85
2023-07-20T05:24:51.338Z,4.75
2023-07-20T05:27:01.450Z,7.90
2023-07-20T05:29:06.548Z,6.47
2023-07-20T05:31:11.884Z,6.97
2023-07-20T05:33:17.262Z,7.72
2023-07-20T05:35:22.428Z,5.78
2023-07-20T05:37:29.168Z,6.60
2023-07-20T05:39:38.477Z,6.07
2023-07-20T05:41:45.637Z,5.88
2023-07-20T05:43:50.785Z,6.90
2023-07-20T05:45:55.838Z,7.65
2023-07-20T05:48:00.829Z,6.57
2023-07-20T05:50:07.766Z,5.75
2023-07-20T05:52:10.320Z,7.35
2023-07-20T05:54:16.092Z,7.82
2023-07-20T05:56:21.355Z,10.45
2023-07-20T05:58:27.088Z,6.10
2023-07-20T06:00:34.803Z,7.00
2023-07-20T06:02:40.396Z,6.22
2023-07-20T06:04:47.083Z,6.97
2023-07-20T06:06:52.155Z,11.18
2023-07-20T06:08:57.362Z,7.38
2023-07-20T06:11:02.824Z,8.10
2023-07-20T06:13:07.662Z,5.80
2023-07-20T06:15:29.928Z,6.80
2023-07-20T06:17:40.504Z,6.03
2023-07-20T06:19:49.574Z,8.57
2023-07-20T06:21:54.743Z,5.43
2023-07-20T06:24:00.182Z,5.53
2023-07-20T06:26:05.682Z,2.55
2023-07-20T06:28:10.592Z,2.90
2023-07-20T06:30:17.760Z,3.75
2023-07-20T06:32:22.734Z,2.83
2023-07-20T06:34:30.776Z,4.13
2023-07-20T06:36:36.545Z,3.08
2023-07-20T06:38:41.711Z,1.80
2023-07-20T06:40:48.085Z,6.10
2023-07-20T06:45:04.660Z,4.55
2023-07-20T06:47:12.801Z,4.68
2023-07-20T06:49:31.662Z,2.13
2023-07-20T06:51:36.563Z,3.60
2023-07-20T06:53:41.629Z,3.53
2023-07-20T06:55:49.687Z,2.65
2023-07-20T06:57:59.379Z,2.83
2023-07-20T07:00:05.556Z,3.88
2023-07-20T07:04:18.909Z,2.50
2023-07-20T07:06:26.960Z,2.60
2023-07-20T07:08:35.054Z,4.55
2023-07-20T07:10:40.506Z,2.65
2023-07-20T07:12:45.567Z,2.92
2023-07-20T07:14:52.086Z,1.88
2023-07-20T07:17:04.378Z,1.90
2023-07-20T07:19:13.111Z,2.88
2023-07-20T07:21:18.448Z,3.65
2023-07-20T07:23:26.430Z,4.38
2023-07-20T07:25:32.631Z,1.50
2023-07-20T07:27:37.653Z,3.03
2023-07-20T07:29:45.486Z,3.47
2023-07-20T07:31:50.516Z,3.38
2023-07-20T07:34:02.380Z,3.55
2023-07-20T07:36:07.928Z,1.65
2023-07-20T07:38:26.781Z,2.92
2023-07-20T07:40:40.934Z,2.08
2023-07-20T07:42:46.094Z,1.77
2023-07-20T07:44:51.419Z,4.53
2023-07-20T07:46:56.466Z,2.95
2023-07-20T07:49:05.216Z,2.10
2023-07-20T07:51:13.262Z,2.08
2023-07-20T07:53:18.266Z,4.88
2023-07-20T07:55:23.223Z,3.05
2023-07-20T07:57:30.784Z,2.90
2023-07-20T07:59:38.188Z,2.92
2023-07-20T08:01:44.916Z,5.05
2023-07-20T08:03:50.711Z,2.90
2023-07-20T08:06:00.339Z,3.00
2023-07-20T08:08:05.442Z,2.50
2023-07-20T08:10:13.031Z,3.55
2023-07-20T08:12:19.954Z,3.33
2023-07-20T08:14:28.866Z,3.20
2023-07-20T08:16:34.017Z,2.67
2023-07-20T08:18:39.597Z,3.70
2023-07-20T08:20:48.170Z,1.55
2023-07-20T08:22:53.399Z,2.50
2023-07-20T08:24:59.722Z,2.72
2023-07-20T08:27:04.762Z,1.80
2023-07-20T08:29:13.074Z,3.38
2023-07-20T08:31:21.980Z,2.50
2023-07-20T08:33:30.791Z,3.60
2023-07-20T08:35:36.152Z,2.75
2023-07-20T08:37:38.725Z,2.08
2023-07-20T08:39:46.143Z,2.22
2023-07-20T08:41:51.697Z,2.47
2023-07-20T08:44:01.178Z,3.25
2023-07-20T08:46:07.649Z,2.80
2023-07-20T08:48:17.034Z,3.42
2023-07-20T08:50:24.008Z,2.25
2023-07-20T08:52:36.137Z,2.72
2023-07-20T08:54:43.412Z,2.53
2023-07-20T08:56:50.878Z,2.88
2023-07-20T08:58:58.795Z,1.88
2023-07-20T09:01:04.385Z,2.25
2023-07-20T09:03:11.293Z,2.50
2023-07-20T09:05:19.583Z,2.55
2023-07-20T09:07:26.737Z,2.10
2023-07-20T09:09:34.648Z,3.53
2023-07-20T09:11:39.460Z,1.88
2023-07-20T09:13:44.467Z,4.20
2023-07-20T09:15:57.650Z,1.75
2023-07-20T09:18:06.684Z,3.55
2023-07-20T09:20:13.161Z,2.67
2023-07-20T09:22:21.396Z,4.25
2023-07-20T09:24:26.738Z,2.08
2023-07-20T09:26:32.670Z,3.45
2023-07-20T09:28:48.048Z,1.60
2023-07-20T09:30:54.555Z,2.10
2023-07-20T09:33:00.250Z,1.75
2023-07-20T09:37:14.240Z,2.17
2023-07-20T09:43:38.714Z,1.67
2023-07-20T09:48:35.173Z,3.88
2023-07-20T09:54:33.724Z,1.60
2023-07-20T09:56:43.395Z,2.45
2023-07-20T09:58:50.028Z,2.13
2023-07-20T10:01:01.767Z,3.08
2023-07-20T10:03:08.120Z,1.58
2023-07-20T10:05:17.382Z,1.58
2023-07-20T10:07:25.005Z,3.72
2023-07-20T10:09:37.840Z,3.70
2023-07-20T10:13:56.709Z,2.92
2023-07-20T10:16:09.584Z,3.42
2023-07-20T10:20:23.776Z,1.65
2023-07-20T10:22:29.023Z,1.88
2023-07-20T10:24:38.678Z,2.80
2023-07-20T10:26:42.473Z,1.98
2023-07-20T10:28:48.824Z,3.60
2023-07-20T10:30:54.621Z,2.05
2023-07-20T10:32:59.782Z,1.83
2023-07-20T10:35:04.721Z,1.85
2023-07-20T10:37:10.497Z,1.77
2023-07-20T10:39:29.243Z,2.15
2023-07-20T10:41:46.501Z,1.70
2023-07-20T10:43:49.636Z,2.95
2023-07-20T10:45:56.130Z,1.73
2023-07-20T10:47:58.741Z,2.17
2023-07-20T10:50:06.462Z,1.90
2023-07-20T10:52:17.779Z,2.40
2023-07-20T10:54:39.505Z,3.08
2023-07-20T10:56:48.690Z,2.58
2023-07-20T10:58:51.047Z,2.58
2023-07-20T11:01:04.668Z,1.60
2023-07-20T11:03:10.475Z,1.52
2023-07-20T11:05:36.872Z,2.78
2023-07-20T11:07:43.109Z,1.88
2023-07-20T11:09:49.823Z,3.55
2023-07-20T11:12:15.423Z,3.50
2023-07-20T11:14:27.969Z,3.40
2023-07-20T11:16:44.809Z,2.83
2023-07-20T11:18:48.064Z,1.50
2023-07-20T11:20:55.018Z,1.70
2023-07-20T11:23:01.184Z,2.97
2023-07-20T11:25:06.722Z,1.52
2023-07-20T11:27:14.342Z,1.50
2023-07-20T11:29:29.818Z,3.42
2023-07-20T11:31:40.143Z,3.13
2023-07-20T11:33:45.078Z,3.03
2023-07-20T11:35:52.337Z,2.28
2023-07-20T11:37:57.604Z,1.65
2023-07-20T11:40:05.444Z,1.85
2023-07-20T11:42:14.101Z,1.90
2023-07-20T11:44:45.617Z,2.38
2023-07-20T11:46:50.836Z,2.10
2023-07-20T11:49:00.849Z,3.30
2023-07-20T11:51:06.792Z,1.55
2023-07-20T11:53:12.724Z,1.63
2023-07-20T11:55:19.053Z,1.83
2023-07-20T11:57:28.260Z,1.80
2023-07-20T11:59:33.543Z,2.45
2023-07-20T12:01:39.169Z,2.13
2023-07-20T12:03:44.310Z,2.58
2023-07-20T12:06:01.200Z,3.00
2023-07-20T12:08:07.858Z,1.60
2023-07-20T12:10:17.064Z,2.30
2023-07-20T12:12:23.358Z,2.13
2023-07-20T12:14:31.136Z,1.85
2023-07-20T12:16:36.235Z,1.98
2023-07-20T12:18:38.678Z,2.22
2023-07-20T12:22:47.479Z,2.38
2023-07-20T12:24:56.697Z,1.58
2023-07-20T12:27:02.665Z,3.33
2023-07-20T12:29:08.027Z,1.40
2023-07-20T12:31:15.734Z,2.85
2023-07-20T12:33:20.774Z,1.90
2023-07-20T12:35:25.978Z,2.38
2023-07-20T12:37:31.010Z,2.65
2023-07-20T12:39:36.406Z,2.20
2023-07-20T12:41:41.282Z,3.17
2023-07-20T12:43:48.727Z,1.75
2023-07-20T12:45:51.293Z,2.47
2023-07-20T12:47:59.656Z,1.60
2023-07-20T12:50:05.459Z,1.48
2023-07-20T12:52:12.840Z,1.80
2023-07-20T12:54:17.963Z,1.58
2023-07-20T12:58:31.266Z,2.28
2023-07-20T13:00:36.230Z,1.73
2023-07-20T13:05:05.022Z,2.47
2023-07-20T13:11:28.275Z,1.38
2023-07-20T13:13:35.641Z,1.52
2023-07-20T13:15:50.711Z,2.33
2023-07-20T13:17:55.885Z,2.75
2023-07-20T13:20:06.290Z,2.08
2023-07-20T13:22:11.172Z,1.30
2023-07-20T13:24:16.900Z,1.77
2023-07-20T13:26:22.285Z,1.30
2023-07-20T13:28:27.274Z,1.40
2023-07-20T13:30:34.276Z,3.35
2023-07-20T13:32:41.516Z,2.10
2023-07-20T13:34:50.001Z,2.33
2023-07-20T13:36:57.671Z,2.28
2023-07-20T13:39:03.329Z,1.27
2023-07-20T13:41:08.247Z,1.30
2023-07-20T13:43:13.518Z,1.40
2023-07-20T13:45:18.937Z,1.45
2023-07-20T13:47:24.527Z,2.22
2023-07-20T13:49:26.953Z,1.35
2023-07-20T13:57:56.521Z,1.70
2023-07-20T14:00:02.331Z,2.03
2023-07-20T14:04:16.076Z,1.48
2023-07-20T14:06:24.126Z,1.38
2023-07-20T14:08:31.506Z,1.20
2023-07-20T14:12:49.770Z,1.85
2023-07-20T14:14:54.760Z,1.15
2023-07-20T14:17:00.230Z,1.60
2023-07-20T14:19:06.479Z,4.40
2023-07-20T14:21:09.867Z,1.92
2023-07-20T14:23:14.840Z,2.58
2023-07-20T14:25:22.719Z,1.17
2023-07-20T14:27:30.598Z,1.23
2023-07-20T14:29:37.801Z,1.25
2023-07-20T14:31:42.785Z,3.95
2023-07-20T14:33:47.882Z,1.10
2023-07-20T14:35:52.919Z,1.25
2023-07-20T14:37:58.205Z,0.98
2023-07-20T14:40:03.857Z,0.70
2023-07-20T14:42:06.876Z,2.28
2023-07-20T14:44:14.453Z,1.30
2023-07-20T14:46:21.513Z,1.27
2023-07-20T14:48:27.112Z,1.00
2023-07-20T14:50:32.401Z,1.52
2023-07-20T14:52:48.580Z,1.20
2023-07-20T14:54:54.200Z,1.20
2023-07-20T14:56:59.322Z,1.38
2023-07-20T14:59:01.930Z,2.05
2023-07-20T15:01:09.833Z,2.72
2023-07-20T15:03:14.893Z,0.80
2023-07-20T15:05:28.224Z,1.30
2023-07-20T15:07:33.444Z,2.08
2023-07-20T15:09:38.865Z,3.17
2023-07-20T15:11:44.892Z,1.27
2023-07-20T15:13:49.764Z,2.10
2023-07-20T15:15:51.997Z,1.63
2023-07-20T15:17:59.813Z,1.70
2023-07-20T15:20:06.077Z,1.98
2023-07-20T15:22:11.737Z,1.25
2023-07-20T15:24:17.681Z,1.20
2023-07-20T15:26:23.031Z,1.15
2023-07-20T15:28:29.376Z,1.10
2023-07-20T15:34:51.969Z,1.67
2023-07-20T15:36:56.948Z,3.45
2023-07-20T15:39:04.472Z,2.17
2023-07-20T15:41:09.560Z,1.17
2023-07-20T15:45:22.558Z,1.75
2023-07-20T15:47:27.603Z,1.15
2023-07-20T15:49:34.812Z,1.42
2023-07-20T15:51:43.192Z,1.48
2023-07-20T15:53:48.996Z,1.08
2023-07-20T15:55:58.963Z,1.90
2023-07-20T15:58:04.090Z,1.63
2023-07-20T16:00:11.467Z,1.85
2023-07-20T16:02:17.061Z,2.35
2023-07-20T16:04:19.388Z,2.08
2023-07-20T16:06:24.615Z,1.10
2023-07-20T16:08:33.140Z,1.40
2023-07-20T16:10:38.023Z,2.10
2023-07-20T16:12:43.414Z,2.60
2023-07-20T16:16:56.358Z,1.20
2023-07-20T16:19:01.580Z,1.42
2023-07-20T16:21:06.694Z,1.60
2023-07-20T16:23:11.545Z,2.00
2023-07-20T16:25:20.737Z,1.83
2023-07-20T16:27:25.922Z,1.33
2023-07-20T16:29:30.713Z,1.75
2023-07-20T16:31:36.005Z,1.23
2023-07-20T16:33:46.155Z,2.60
2023-07-20T16:35:51.662Z,0.98
2023-07-20T16:40:31.848Z,1.63
2023-07-20T16:44:45.857Z,2.55
2023-07-20T16:49:00.483Z,1.77
2023-07-20T16:51:06.407Z,2.67
2023-07-20T16:53:11.386Z,1.30
2023-07-20T16:55:18.334Z,1.63
2023-07-20T16:57:24.737Z,1.40
2023-07-20T16:59:37.987Z,0.95
2023-07-20T17:01:43.032Z,2.30
2023-07-20T17:03:48.142Z,1.48
2023-07-20T17:05:50.810Z,2.25
2023-07-20T17:10:02.163Z,0.95
2023-07-20T17:12:07.765Z,1.42
2023-07-20T17:14:14.233Z,0.90
2023-07-20T17:16:22.221Z,1.00
2023-07-20T17:18:27.154Z,1.05
2023-07-20T17:22:40.900Z,1.10
2023-07-20T17:27:18.368Z,3.92
2023-07-20T17:29:19.003Z,1.67
2023-07-20T17:31:30.039Z,1.38
2023-07-20T17:33:35.097Z,3.45
2023-07-20T17:35:40.600Z,2.22
2023-07-20T17:43:06.647Z,4.10
2023-07-20T17:44:29.734Z,1.52
2023-07-20T17:48:48.417Z,1.88
2023-07-20T17:50:53.690Z,1.67
2023-07-20T17:52:58.878Z,3.17
2023-07-20T17:55:01.131Z,2.20
2023-07-20T17:57:06.471Z,1.73
2023-07-20T17:59:11.300Z,1.88
2023-07-20T18:01:17.132Z,1.90
2023-07-20T18:03:22.208Z,1.23
2023-07-20T18:05:27.707Z,1.65
2023-07-20T18:07:32.887Z,1.58
2023-07-20T18:09:37.876Z,1.23
2023-07-20T18:11:43.104Z,1.10
2023-07-20T18:13:48.764Z,1.80
2023-07-20T18:16:01.901Z,4.72
2023-07-20T18:18:09.341Z,1.23
2023-07-20T18:20:17.397Z,2.03
2023-07-20T18:22:19.981Z,1.60
2023-07-20T18:26:29.699Z,1.88
2023-07-20T18:28:34.881Z,1.77
2023-07-20T18:30:40.479Z,2.45
2023-07-20T18:32:46.399Z,2.55
2023-07-20T18:34:51.606Z,1.27
2023-07-20T18:37:02.224Z,3.25
2023-07-20T18:39:07.493Z,2.30
2023-07-20T18:41:13.931Z,1.50
2023-07-20T18:43:21.737Z,1.85
2023-07-20T18:45:27.941Z,2.47
2023-07-20T18:47:34.312Z,2.38
2023-07-20T18:49:39.428Z,1.95
2023-07-20T18:51:44.512Z,2.53
2023-07-20T18:53:54.464Z,2.22
2023-07-20T18:55:59.693Z,2.05
2023-07-20T18:58:04.916Z,1.88
2023-07-20T19:00:11.336Z,2.55
2023-07-20T19:02:16.940Z,2.30
2023-07-20T19:04:23.438Z,2.10
2023-07-20T19:06:28.826Z,1.60
2023-07-20T19:08:36.149Z,3.58
2023-07-20T19:12:53.513Z,1.60
2023-07-20T19:14:58.790Z,2.83
2023-07-20T19:17:03.678Z,1.52
2023-07-20T19:19:09.440Z,2.92
2023-07-20T19:21:15.618Z,2.00
2023-07-20T19:23:20.535Z,2.35
2023-07-20T19:25:26.250Z,2.78
2023-07-20T19:27:33.830Z,1.80
2023-07-20T19:29:39.426Z,2.53
2023-07-20T19:31:49.887Z,1.55
2023-07-20T19:33:54.994Z,2.20
2023-07-20T19:35:58.150Z,2.42
2023-07-20T19:38:05.202Z,2.60
2023-07-20T19:40:13.030Z,2.83
2023-07-20T19:42:18.241Z,2.10
2023-07-20T19:44:26.072Z,3.05
2023-07-20T19:46:31.196Z,4.80
2023-07-20T19:48:38.074Z,1.83
2023-07-20T19:50:44.133Z,2.17
2023-07-20T19:54:56.928Z,2.00
2023-07-20T19:57:39.781Z,2.90
2023-07-20T19:59:32.707Z,2.88
2023-07-20T20:03:48.770Z,2.83
2023-07-20T20:05:53.789Z,2.78
2023-07-20T20:08:00.655Z,2.33
2023-07-20T20:10:06.197Z,2.15
2023-07-20T20:12:14.085Z,2.70
2023-07-20T20:14:19.178Z,3.33
2023-07-20T20:16:27.101Z,2.58
2023-07-20T20:18:34.092Z,5.13
2023-07-20T20:20:43.056Z,2.97
2023-07-20T20:22:47.881Z,2.70
2023-07-20T20:24:53.191Z,2.90
2023-07-20T20:26:58.179Z,2.40
2023-07-20T20:29:03.265Z,4.07
2023-07-20T20:31:08.259Z,3.00
2023-07-20T20:33:16.025Z,4.43
2023-07-20T20:35:21.164Z,2.63
2023-07-20T20:37:26.989Z,3.50
2023-07-20T20:39:32.518Z,2.63
2023-07-20T20:41:45.513Z,5.38
2023-07-20T20:43:50.792Z,3.00
2023-07-20T20:45:55.929Z,4.25
2023-07-20T20:48:00.505Z,2.97
2023-07-20T20:50:10.283Z,4.38
2023-07-20T20:52:12.966Z,6.60
2023-07-20T20:54:17.905Z,5.13
2023-07-20T20:56:23.256Z,3.63
2023-07-20T20:58:29.132Z,4.50
2023-07-20T21:00:35.114Z,3.20
2023-07-20T21:02:41.824Z,3.13
2023-07-20T21:04:51.038Z,4.80
2023-07-20T21:06:59.492Z,5.15
2023-07-20T21:09:04.478Z,2.72
2023-07-20T21:11:09.763Z,2.95
2023-07-20T21:13:17.630Z,3.97
2023-07-20T21:15:22.922Z,3.28
2023-07-20T21:17:29.241Z,3.20
2023-07-20T21:19:34.448Z,2.90
2023-07-20T21:21:39.601Z,3.45
2023-07-20T21:23:48.525Z,3.10
2023-07-20T21:25:53.596Z,3.53
2023-07-20T21:27:59.161Z,3.65
2023-07-20T21:30:04.428Z,5.53
2023-07-20T21:32:11.413Z,3.83
2023-07-20T21:34:14.524Z,3.22
2023-07-20T21:36:23.077Z,3.88
2023-07-20T21:38:31.996Z,2.70
2023-07-20T21:40:39.878Z,2.92
2023-07-20T21:42:44.777Z,2.72
2023-07-20T21:44:49.804Z,3.28
2023-07-20T21:46:55.314Z,3.55
2023-07-20T21:49:01.426Z,2.85
2023-07-20T21:51:06.997Z,2.72
2023-07-20T21:53:12.060Z,3.03
2023-07-20T21:55:18.617Z,3.30
2023-07-20T21:57:26.251Z,4.82
2023-07-20T21:59:31.257Z,4.35
2023-07-20T22:03:44.932Z,3.83
2023-07-20T22:05:53.424Z,3.53
2023-07-20T22:08:03.052Z,3.15
2023-07-20T22:10:09.382Z,2.67
2023-07-20T22:12:15.798Z,3.40
2023-07-20T22:14:23.505Z,2.00
2023-07-20T22:16:32.760Z,5.85
2023-07-20T22:18:38.203Z,3.63
2023-07-20T22:20:43.294Z,3.97
2023-07-20T22:22:48.546Z,3.00
2023-07-20T22:24:53.999Z,2.85
2023-07-20T22:27:01.263Z,1.92
2023-07-20T22:29:06.411Z,2.25
2023-07-20T22:31:14.530Z,4.18
2023-07-20T22:33:19.819Z,2.35
2023-07-20T22:35:25.041Z,2.40
2023-07-20T22:37:29.978Z,2.20
2023-07-20T22:39:37.860Z,3.72
2023-07-20T22:41:43.035Z,1.80
2023-07-20T22:43:47.807Z,2.08
2023-07-20T22:45:53.106Z,3.10
2023-07-20T22:48:00.636Z,2.53
2023-07-20T22:50:09.847Z,2.92
2023-07-20T22:52:15.684Z,4.43
2023-07-20T22:54:21.312Z,2.67
2023-07-20T22:56:26.650Z,2.78
2023-07-20T22:58:33.309Z,2.45
2023-07-20T23:00:38.899Z,2.95
2023-07-20T23:02:45.422Z,2.63
2023-07-20T23:04:54.692Z,2.60
2023-07-20T23:07:02.608Z,4.00
2023-07-20T23:09:07.924Z,4.13
2023-07-20T23:11:14.047Z,2.90
2023-07-20T23:13:18.962Z,5.93
2023-07-20T23:15:24.113Z,3.67
2023-07-20T23:17:26.973Z,2.75
2023-07-20T23:19:33.313Z,3.45
2023-07-20T23:21:41.800Z,3.90
2023-07-20T23:23:47.870Z,2.30
2023-07-20T23:25:56.292Z,2.78
2023-07-20T23:28:01.466Z,3.60
2023-07-20T23:30:06.622Z,5.18
2023-07-20T23:32:13.067Z,3.47
2023-07-20T23:34:18.218Z,4.20
2023-07-20T23:36:23.184Z,3.83
2023-07-20T23:38:30.875Z,3.25
2023-07-20T23:40:38.038Z,3.53
2023-07-20T23:42:44.969Z,3.45
2023-07-20T23:44:50.187Z,4.70
2023-07-20T23:46:55.370Z,3.85
2023-07-20T23:49:01.990Z,2.85
2023-07-20T23:51:04.502Z,2.85
2023-07-20T23:53:09.578Z,3.53
2023-07-20T23:55:14.837Z,4.13
2023-07-20T23:57:20.248Z,4.80
2023-07-20T23:59:25.247Z,2.58
